CheckWX is a tool to help pilots better visualize weather data.  It is not intended as a substitute for an official pre-flight weather briefing.

02:23:33 UTC

EPKS TAF
Krzesiny Military Air Base Airport
Poland
TAF EPKS 192300Z 2000/2009 21004KT 8000 NSC TEMPO 2000/2005 3000 BR PROB40 2002/2005 1000 BR BKN003

Aug-20@
00:00 UTC

Aug-20 @ 00:00 UTC

Aug-20@
09:00 UTC

Aug-20 @ 09:00 UTC

TAF EPKS 192300Z 2000/2009 21004KT 8000 NSC
Wind
  • 210° at 4 KTS
Cloud Levels
  • No significant clouds

Aug-20@
00:00 UTC

Aug-20 @ 00:00 UTC

Aug-20@
05:00 UTC

Aug-20 @ 05:00 UTC

TEMPO 2000/2005 3000 BR

Temporary

Temporary Changes expected for less than half the time period

Conditions
Mist

Aug-20@
02:00 UTC

Aug-20 @ 02:00 UTC

Aug-20@
05:00 UTC

Aug-20 @ 05:00 UTC

PROB40 2002/2005 1000 BR BKN003

Probable - 40% Likelihood

Probable - 40% Likelihood during this time.

Conditions
Mist
Cloud Levels
  • Broken at 300' AGL